createdAt,value
2022-10-22T00:01:38.928Z,7.37
2022-10-22T00:04:06.189Z,7.29
2022-10-22T00:06:33.494Z,7.32
2022-10-22T00:09:00.593Z,7.21
2022-10-22T00:11:27.214Z,7.25
2022-10-22T00:13:53.974Z,7.21
2022-10-22T00:16:20.681Z,7.24
2022-10-22T00:18:47.280Z,7.26
2022-10-22T00:21:14.136Z,7.19
2022-10-22T00:23:42.597Z,7.15
2022-10-22T00:26:09.915Z,7.07
2022-10-22T00:28:36.743Z,6.92
2022-10-22T00:31:03.300Z,6.92
2022-10-22T00:33:30.336Z,6.78
2022-10-22T00:35:57.023Z,6.84
2022-10-22T00:38:23.751Z,6.86
2022-10-22T00:40:50.529Z,6.94
2022-10-22T00:43:19.437Z,6.95
2022-10-22T00:45:46.833Z,6.90
2022-10-22T00:48:19.015Z,6.92
2022-10-22T00:50:56.538Z,6.89
2022-10-22T00:53:43.181Z,6.85
2022-10-22T00:56:10.161Z,6.79
2022-10-22T00:58:39.813Z,6.62
2022-10-22T01:01:09.206Z,6.60
2022-10-22T01:03:36.059Z,6.61
2022-10-22T01:06:05.093Z,6.61
2022-10-22T01:08:40.840Z,6.52
2022-10-22T01:11:50.290Z,6.51
2022-10-22T01:14:42.242Z,6.50
2022-10-22T01:17:46.191Z,6.37
2022-10-22T01:20:27.832Z,6.28
2022-10-22T01:23:15.819Z,6.28
2022-10-22T01:25:58.555Z,6.30
2022-10-22T01:28:59.244Z,6.40
2022-10-22T01:31:39.489Z,6.48
2022-10-22T01:34:08.347Z,6.45
2022-10-22T01:36:37.437Z,6.47
2022-10-22T01:39:05.566Z,6.41
2022-10-22T01:41:32.182Z,6.32
2022-10-22T01:43:58.700Z,6.21
2022-10-22T01:46:28.206Z,6.15
2022-10-22T01:49:23.843Z,6.18
2022-10-22T01:52:25.000Z,6.36
2022-10-22T01:55:32.567Z,6.55
2022-10-22T01:58:22.648Z,6.58
2022-10-22T02:01:07.508Z,6.60
2022-10-22T02:03:45.088Z,6.53
2022-10-22T02:06:18.781Z,6.57
2022-10-22T02:08:47.027Z,6.49
2022-10-22T02:11:15.643Z,6.40
2022-10-22T02:13:51.184Z,6.28
2022-10-22T02:16:34.412Z,6.20
2022-10-22T02:19:06.772Z,6.10
2022-10-22T02:21:33.372Z,6.08
2022-10-22T02:24:00.350Z,6.12
2022-10-22T02:26:39.204Z,6.05
2022-10-22T02:29:13.183Z,6.08
2022-10-22T02:31:43.065Z,6.00
2022-10-22T02:34:14.666Z,5.94
2022-10-22T02:36:46.779Z,5.95
2022-10-22T02:41:48.760Z,6.01
2022-10-22T02:44:15.592Z,5.98
2022-10-22T02:46:43.340Z,6.09
2022-10-22T02:49:09.864Z,6.07
2022-10-22T02:51:36.428Z,6.14
2022-10-22T02:54:03.005Z,6.24
2022-10-22T02:56:29.511Z,6.22
2022-10-22T02:58:56.059Z,6.34
2022-10-22T03:01:22.617Z,6.41
2022-10-22T03:03:49.305Z,6.31
2022-10-22T03:06:16.641Z,6.43
2022-10-22T03:08:43.119Z,6.41
2022-10-22T03:11:09.752Z,6.40
2022-10-22T03:13:36.319Z,6.29
2022-10-22T03:16:02.929Z,6.33
2022-10-22T03:18:29.446Z,6.39
2022-10-22T03:21:23.356Z,6.29
2022-10-22T03:23:50.129Z,6.22
2022-10-22T03:26:16.699Z,6.23
2022-10-22T03:28:43.616Z,6.13
2022-10-22T03:31:10.121Z,6.10
2022-10-22T03:33:36.656Z,6.02
2022-10-22T03:36:03.234Z,5.97
2022-10-22T03:38:30.431Z,6.05
2022-10-22T03:40:57.534Z,6.16
2022-10-22T03:43:24.245Z,6.21
2022-10-22T03:45:50.798Z,6.13
2022-10-22T03:48:17.288Z,6.04
2022-10-22T03:50:43.804Z,6.06
2022-10-22T03:53:10.669Z,6.02
2022-10-22T03:55:38.422Z,6.07
2022-10-22T03:58:05.480Z,6.08
2022-10-22T04:00:34.344Z,6.07
2022-10-22T04:03:01.072Z,6.09
2022-10-22T04:05:27.649Z,6.06
2022-10-22T04:07:54.215Z,6.04
2022-10-22T04:10:20.758Z,6.05
2022-10-22T04:12:48.539Z,6.12
2022-10-22T04:15:15.128Z,6.14
2022-10-22T04:17:41.876Z,6.14
2022-10-22T04:20:09.229Z,6.17
2022-10-22T04:22:36.216Z,6.04
2022-10-22T04:25:04.329Z,5.96
2022-10-22T04:27:32.559Z,5.90
2022-10-22T04:29:59.154Z,5.88
2022-10-22T04:32:26.911Z,5.89
2022-10-22T04:34:53.408Z,5.99
2022-10-22T04:37:20.477Z,5.96
2022-10-22T04:39:46.999Z,5.92
2022-10-22T04:42:13.782Z,5.89
2022-10-22T04:44:40.296Z,5.83
2022-10-22T04:47:06.800Z,5.76
2022-10-22T04:49:33.288Z,5.68
2022-10-22T04:51:59.830Z,5.44
2022-10-22T04:54:29.037Z,5.20
2022-10-22T04:56:58.751Z,5.07
2022-10-22T04:59:25.325Z,5.10
2022-10-22T05:01:51.896Z,5.10
2022-10-22T05:04:19.746Z,5.17
2022-10-22T05:06:46.644Z,5.13
2022-10-22T05:09:17.097Z,5.13
2022-10-22T05:11:46.375Z,5.23
2022-10-22T05:14:13.109Z,5.26
2022-10-22T05:16:39.804Z,5.44
2022-10-22T05:19:07.950Z,5.40
2022-10-22T05:21:34.760Z,5.32
2022-10-22T05:24:01.306Z,5.25
2022-10-22T05:26:29.126Z,5.27
2022-10-22T05:28:56.779Z,5.29
2022-10-22T05:31:23.746Z,5.27
2022-10-22T05:33:50.335Z,5.24
2022-10-22T05:36:22.312Z,5.19
2022-10-22T05:38:49.357Z,5.25
2022-10-22T05:41:18.647Z,5.39
2022-10-22T05:43:45.598Z,5.42
2022-10-22T05:46:22.248Z,5.61
2022-10-22T05:48:58.330Z,5.79
2022-10-22T05:51:26.610Z,5.94
2022-10-22T05:53:58.072Z,6.12
2022-10-22T05:56:26.187Z,6.42
2022-10-22T05:58:53.236Z,6.64
2022-10-22T06:01:25.600Z,6.69
2022-10-22T06:03:58.099Z,6.94
2022-10-22T06:06:27.271Z,7.33
2022-10-22T06:08:55.597Z,7.61
2022-10-22T06:11:23.493Z,7.80
2022-10-22T06:13:50.899Z,8.02
2022-10-22T06:16:17.332Z,8.23
2022-10-22T06:18:44.023Z,8.17
2022-10-22T06:21:13.105Z,8.27
2022-10-22T06:23:40.464Z,8.26
2022-10-22T06:26:07.178Z,8.25
2022-10-22T06:28:34.028Z,8.25
2022-10-22T06:31:02.684Z,8.60
2022-10-22T06:33:31.222Z,8.80
2022-10-22T06:36:08.977Z,8.94
2022-10-22T06:38:35.535Z,8.94
2022-10-22T06:41:06.836Z,9.18
2022-10-22T06:43:33.387Z,9.25
2022-10-22T06:46:05.987Z,9.29
2022-10-22T06:48:33.399Z,9.28
2022-10-22T06:51:03.765Z,9.58
2022-10-22T06:53:30.603Z,9.89
2022-10-22T06:55:57.401Z,10.12
2022-10-22T06:58:24.347Z,10.23
2022-10-22T07:01:01.084Z,10.46
2022-10-22T07:03:27.651Z,10.85
2022-10-22T07:05:54.189Z,11.22
2022-10-22T07:08:20.689Z,11.44
2022-10-22T07:10:47.194Z,11.50
2022-10-22T07:13:13.896Z,11.77
2022-10-22T07:15:40.388Z,11.92
2022-10-22T07:18:06.898Z,12.11
2022-10-22T07:20:33.454Z,12.53
2022-10-22T07:22:59.946Z,12.63
2022-10-22T07:25:26.484Z,12.55
2022-10-22T07:27:52.984Z,12.80
2022-10-22T07:30:19.467Z,13.27
2022-10-22T07:32:45.976Z,13.38
2022-10-22T07:35:12.489Z,13.52
2022-10-22T07:37:39.470Z,13.70
2022-10-22T07:40:06.851Z,14.12
2022-10-22T07:42:33.420Z,14.44
2022-10-22T07:44:59.946Z,14.43
2022-10-22T07:47:26.559Z,14.57
2022-10-22T07:49:53.060Z,14.53
2022-10-22T07:52:19.551Z,14.74
2022-10-22T07:54:46.028Z,15.13
2022-10-22T07:57:12.561Z,15.18
2022-10-22T07:59:39.059Z,15.24
2022-10-22T08:02:05.592Z,15.33
2022-10-22T08:04:32.124Z,15.16
2022-10-22T08:06:58.640Z,15.65
2022-10-22T08:09:25.158Z,15.89
2022-10-22T08:11:51.781Z,16.02
2022-10-22T08:14:18.307Z,16.05
2022-10-22T08:16:44.977Z,16.84
2022-10-22T08:19:11.534Z,17.71
2022-10-22T08:21:38.041Z,17.49
2022-10-22T08:24:04.945Z,17.84
2022-10-22T08:26:31.583Z,18.11
2022-10-22T08:28:58.118Z,18.06
2022-10-22T08:31:24.676Z,17.62
2022-10-22T08:33:51.238Z,17.30
2022-10-22T08:36:17.747Z,17.06
2022-10-22T08:38:44.285Z,17.39
2022-10-22T08:41:15.933Z,17.89
2022-10-22T08:43:54.324Z,18.57
2022-10-22T08:46:48.105Z,19.58
2022-10-22T08:49:25.565Z,19.86
2022-10-22T08:51:52.505Z,19.28
2022-10-22T08:54:34.131Z,19.58
2022-10-22T08:57:19.137Z,20.06
2022-10-22T09:00:06.054Z,20.41
2022-10-22T09:02:33.681Z,21.75
2022-10-22T09:05:15.177Z,22.11
2022-10-22T09:07:44.008Z,22.70
2022-10-22T09:10:12.961Z,22.12
2022-10-22T09:12:39.531Z,22.48
2022-10-22T09:15:06.695Z,21.38
2022-10-22T09:17:53.871Z,20.57
2022-10-22T09:20:26.336Z,20.33
2022-10-22T09:23:20.446Z,19.90
2022-10-22T09:25:49.160Z,19.35
2022-10-22T09:28:16.057Z,18.85
2022-10-22T09:30:43.414Z,18.81
2022-10-22T09:33:09.859Z,18.61
2022-10-22T09:35:46.353Z,18.61
2022-10-22T09:38:15.199Z,18.77
2022-10-22T09:40:48.378Z,18.48
2022-10-22T09:43:15.307Z,18.51
2022-10-22T09:45:43.103Z,18.18
2022-10-22T09:48:11.773Z,18.24
2022-10-22T09:50:54.938Z,18.36
2022-10-22T09:53:30.751Z,18.47
2022-10-22T09:55:59.679Z,18.56
2022-10-22T09:58:27.112Z,18.67
2022-10-22T10:00:55.687Z,18.54
2022-10-22T10:03:26.337Z,18.60
2022-10-22T10:06:00.163Z,18.74
2022-10-22T10:08:29.831Z,18.85
2022-10-22T10:11:05.575Z,18.90
2022-10-22T10:13:53.655Z,18.93
2022-10-22T10:16:44.910Z,18.92
2022-10-22T10:19:37.693Z,19.16
2022-10-22T10:22:23.960Z,19.37
2022-10-22T10:25:06.958Z,19.37
2022-10-22T10:28:00.407Z,19.52
2022-10-22T10:30:27.451Z,19.54
2022-10-22T10:33:12.202Z,19.69
2022-10-22T10:35:52.301Z,19.79
2022-10-22T10:38:29.530Z,19.90
2022-10-22T10:41:13.060Z,19.85
2022-10-22T10:44:11.915Z,20.15
2022-10-22T10:47:08.204Z,20.28
2022-10-22T10:49:36.159Z,20.42
2022-10-22T10:52:24.839Z,20.41
2022-10-22T10:55:12.746Z,20.60
2022-10-22T10:57:42.536Z,20.72
2022-10-22T11:00:20.347Z,20.79
2022-10-22T11:03:14.825Z,20.94
2022-10-22T11:05:53.039Z,21.18
2022-10-22T11:08:27.344Z,21.34
2022-10-22T11:11:21.609Z,21.28
2022-10-22T11:14:11.267Z,21.42
2022-10-22T11:16:47.347Z,21.51
2022-10-22T11:19:46.046Z,21.66
2022-10-22T11:22:14.167Z,21.71
2022-10-22T11:24:52.669Z,21.83
2022-10-22T11:27:31.948Z,21.79
2022-10-22T11:30:06.376Z,21.81
2022-10-22T11:32:33.447Z,21.71
2022-10-22T11:35:04.862Z,21.72
2022-10-22T11:37:35.256Z,21.87
2022-10-22T11:40:14.655Z,22.02
2022-10-22T11:42:47.892Z,22.07
2022-10-22T11:45:14.409Z,22.25
2022-10-22T11:48:19.354Z,22.39
2022-10-22T11:50:56.636Z,22.37
2022-10-22T11:53:26.069Z,22.42
2022-10-22T11:55:56.136Z,22.55
2022-10-22T11:58:33.272Z,22.60
2022-10-22T12:01:02.739Z,22.54
2022-10-22T12:03:32.409Z,22.56
2022-10-22T12:06:04.736Z,22.63
2022-10-22T12:08:33.148Z,22.60
2022-10-22T12:11:13.357Z,22.71
2022-10-22T12:14:02.770Z,22.71
2022-10-22T12:16:54.246Z,22.68
2022-10-22T12:19:27.478Z,22.68
2022-10-22T12:22:02.034Z,22.64
2022-10-22T12:24:35.277Z,22.69
2022-10-22T12:27:01.971Z,22.78
2022-10-22T12:29:32.258Z,22.87
2022-10-22T12:32:03.309Z,23.00
2022-10-22T12:34:30.006Z,23.00
2022-10-22T12:36:56.553Z,23.05
2022-10-22T12:39:27.431Z,23.06
2022-10-22T12:41:54.993Z,23.08
2022-10-22T12:44:21.720Z,23.15
2022-10-22T12:46:53.008Z,23.19
2022-10-22T12:49:27.436Z,23.26
2022-10-22T12:51:54.748Z,23.21
2022-10-22T12:54:28.912Z,23.22
2022-10-22T12:56:57.273Z,23.20
2022-10-22T12:59:35.979Z,23.19
2022-10-22T13:02:11.869Z,23.10
2022-10-22T13:04:38.703Z,23.16
2022-10-22T13:07:17.115Z,23.08
2022-10-22T13:09:59.848Z,23.04
2022-10-22T13:12:28.843Z,23.02
2022-10-22T13:14:55.384Z,22.96
2022-10-22T13:17:40.856Z,22.91
2022-10-22T13:20:22.077Z,22.77
2022-10-22T13:22:55.829Z,22.81
2022-10-22T13:25:31.788Z,22.80
2022-10-22T13:28:02.861Z,22.73
2022-10-22T13:30:37.111Z,22.82
2022-10-22T13:33:17.687Z,22.77
2022-10-22T13:35:44.255Z,22.80
2022-10-22T13:38:19.900Z,22.83
2022-10-22T13:40:46.889Z,22.87
2022-10-22T13:43:13.856Z,22.89
2022-10-22T13:45:40.460Z,22.89
2022-10-22T13:48:12.894Z,22.86
2022-10-22T13:50:39.463Z,22.79
2022-10-22T13:53:06.484Z,22.78
2022-10-22T13:55:32.997Z,22.77
2022-10-22T13:58:13.379Z,22.85
2022-10-22T14:00:43.836Z,22.82
2022-10-22T14:03:12.698Z,22.75
2022-10-22T14:05:39.288Z,22.69
2022-10-22T14:08:13.882Z,22.67
2022-10-22T14:10:40.379Z,22.53
2022-10-22T14:13:14.544Z,22.50
2022-10-22T14:15:42.889Z,22.39
2022-10-22T14:18:15.456Z,22.43
2022-10-22T14:20:42.694Z,22.40
2022-10-22T14:23:14.267Z,22.36
2022-10-22T14:25:41.382Z,22.25
2022-10-22T14:28:11.038Z,22.26
2022-10-22T14:30:38.022Z,22.22
2022-10-22T14:33:14.005Z,22.19
2022-10-22T14:35:40.500Z,22.12
2022-10-22T14:38:07.030Z,22.00
2022-10-22T14:40:33.643Z,21.88
2022-10-22T14:43:00.146Z,21.84
2022-10-22T14:45:27.387Z,21.70
2022-10-22T14:47:55.684Z,21.55
2022-10-22T14:50:22.468Z,21.47
2022-10-22T14:52:48.992Z,21.33
2022-10-22T14:55:17.351Z,21.07
2022-10-22T14:57:44.458Z,20.82
2022-10-22T15:00:15.724Z,20.67
2022-10-22T15:02:42.598Z,20.56
2022-10-22T15:05:10.241Z,20.44
2022-10-22T15:07:37.787Z,20.41
2022-10-22T15:10:05.654Z,20.38
2022-10-22T15:12:32.807Z,20.44
2022-10-22T15:14:59.556Z,20.44
2022-10-22T15:17:26.532Z,20.33
2022-10-22T15:19:53.286Z,20.34
2022-10-22T15:22:19.808Z,20.18
2022-10-22T15:24:46.388Z,20.01
2022-10-22T15:27:13.840Z,19.91
2022-10-22T15:29:41.935Z,19.91
2022-10-22T15:32:12.227Z,19.77
2022-10-22T15:34:39.808Z,19.31
2022-10-22T15:37:10.682Z,18.97
2022-10-22T15:39:40.666Z,18.90
2022-10-22T15:42:07.712Z,18.65
2022-10-22T15:44:34.356Z,18.99
2022-10-22T15:47:03.792Z,19.10
2022-10-22T15:49:30.493Z,19.14
2022-10-22T15:51:57.060Z,19.15
2022-10-22T15:54:28.111Z,19.09
2022-10-22T15:56:55.855Z,19.06
2022-10-22T15:59:23.011Z,19.16
2022-10-22T16:01:50.091Z,19.18
2022-10-22T16:04:17.168Z,19.11
2022-10-22T16:06:48.058Z,19.12
2022-10-22T16:09:20.691Z,19.14
2022-10-22T16:11:47.429Z,19.16
2022-10-22T16:14:16.361Z,19.12
2022-10-22T16:16:45.935Z,19.11
2022-10-22T16:19:14.459Z,19.10
2022-10-22T16:21:41.555Z,19.00
2022-10-22T16:24:09.651Z,18.94
2022-10-22T16:26:36.349Z,18.93
2022-10-22T16:29:05.576Z,18.94
2022-10-22T16:31:32.105Z,18.93
2022-10-22T16:33:58.681Z,18.87
2022-10-22T16:36:25.686Z,18.73
2022-10-22T16:38:52.268Z,18.62
2022-10-22T16:41:21.863Z,18.62
2022-10-22T16:43:51.174Z,18.51
2022-10-22T16:46:19.798Z,18.53
2022-10-22T16:48:51.947Z,18.41
2022-10-22T16:51:21.516Z,18.39
2022-10-22T16:53:48.942Z,18.36
2022-10-22T16:56:16.548Z,18.27
2022-10-22T16:58:48.888Z,18.18
2022-10-22T17:01:18.177Z,18.12
2022-10-22T17:03:45.559Z,18.09
2022-10-22T17:06:12.207Z,18.07
2022-10-22T17:08:39.816Z,18.04
2022-10-22T17:11:08.716Z,18.02
2022-10-22T17:13:35.595Z,18.02
2022-10-22T17:16:07.343Z,17.98
2022-10-22T17:18:35.696Z,17.88
2022-10-22T17:21:04.667Z,17.84
2022-10-22T17:23:31.440Z,17.79
2022-10-22T17:26:00.052Z,17.78
2022-10-22T17:28:27.138Z,17.70
2022-10-22T17:31:17.155Z,17.71
2022-10-22T17:33:44.601Z,17.63
2022-10-22T17:36:12.845Z,17.65
2022-10-22T17:38:41.516Z,17.62
2022-10-22T17:41:11.469Z,17.54
2022-10-22T17:43:41.253Z,17.51
2022-10-22T17:46:11.284Z,17.51
2022-10-22T17:48:37.899Z,17.50
2022-10-22T17:51:09.229Z,17.51
2022-10-22T17:53:35.900Z,17.31
2022-10-22T17:56:06.980Z,17.08
2022-10-22T17:58:33.516Z,16.68
2022-10-22T18:01:00.196Z,16.50
2022-10-22T18:03:27.974Z,16.31
2022-10-22T18:05:54.917Z,16.18
2022-10-22T18:08:24.106Z,15.91
2022-10-22T18:10:50.662Z,15.67
2022-10-22T18:13:17.222Z,15.64
2022-10-22T18:15:43.743Z,15.47
2022-10-22T18:18:10.263Z,15.46
2022-10-22T18:20:36.774Z,15.26
2022-10-22T18:23:03.709Z,15.21
2022-10-22T18:25:31.787Z,15.13
2022-10-22T18:27:58.413Z,15.16
2022-10-22T18:30:24.891Z,15.11
2022-10-22T18:32:51.812Z,14.96
2022-10-22T18:35:18.362Z,15.00
2022-10-22T18:37:45.082Z,15.00
2022-10-22T18:40:14.576Z,14.92
2022-10-22T18:42:41.703Z,14.87
2022-10-22T18:45:08.866Z,14.75
2022-10-22T18:47:39.257Z,14.64
2022-10-22T18:50:06.222Z,14.65
2022-10-22T18:52:33.053Z,14.62
2022-10-22T18:54:59.575Z,14.68
2022-10-22T18:57:26.103Z,14.59
2022-10-22T18:59:54.688Z,14.49
2022-10-22T19:02:23.828Z,14.27
2022-10-22T19:04:50.447Z,14.18
2022-10-22T19:07:16.956Z,14.17
2022-10-22T19:09:43.779Z,14.16
2022-10-22T19:12:10.514Z,14.14
2022-10-22T19:14:37.128Z,14.11
2022-10-22T19:17:03.779Z,14.00
2022-10-22T19:19:30.365Z,13.89
2022-10-22T19:21:59.419Z,13.81
2022-10-22T19:24:26.920Z,13.86
2022-10-22T19:26:53.431Z,13.97
2022-10-22T19:29:21.159Z,13.69
2022-10-22T19:31:50.575Z,13.58
2022-10-22T19:34:17.436Z,13.45
2022-10-22T19:36:44.088Z,13.35
2022-10-22T19:39:10.635Z,13.26
2022-10-22T19:41:37.349Z,13.18
2022-10-22T19:44:04.080Z,13.13
2022-10-22T19:46:32.588Z,12.95
2022-10-22T19:48:59.736Z,12.86
2022-10-22T19:51:29.817Z,12.84
2022-10-22T19:54:01.659Z,12.71
2022-10-22T19:56:28.859Z,12.68
2022-10-22T19:58:55.516Z,12.56
2022-10-22T20:01:22.682Z,12.58
2022-10-22T20:03:49.685Z,12.67
2022-10-22T20:06:17.988Z,12.63
2022-10-22T20:08:45.795Z,12.54
2022-10-22T20:11:18.896Z,12.37
2022-10-22T20:13:49.593Z,12.27
2022-10-22T20:16:23.221Z,12.36
2022-10-22T20:18:50.960Z,12.42
2022-10-22T20:21:19.377Z,12.34
2022-10-22T20:23:47.047Z,12.27
2022-10-22T20:26:14.071Z,12.15
2022-10-22T20:28:40.588Z,12.05
2022-10-22T20:31:16.076Z,12.02
2022-10-22T20:33:42.914Z,11.98
2022-10-22T20:36:14.269Z,11.94
2022-10-22T20:38:40.784Z,11.87
2022-10-22T20:41:10.637Z,11.86
2022-10-22T20:43:37.293Z,11.87
2022-10-22T20:46:04.323Z,11.81
2022-10-22T20:48:31.769Z,11.74
2022-10-22T20:50:59.084Z,11.52
2022-10-22T20:53:27.660Z,11.32
2022-10-22T20:55:58.563Z,11.39
2022-10-22T20:58:27.063Z,11.53
2022-10-22T21:00:54.816Z,11.56
2022-10-22T21:03:21.427Z,11.50
2022-10-22T21:05:48.040Z,11.42
2022-10-22T21:08:17.463Z,11.36
2022-10-22T21:10:46.472Z,11.35
2022-10-22T21:13:13.513Z,11.43
2022-10-22T21:15:40.021Z,11.40
2022-10-22T21:18:07.379Z,11.36
2022-10-22T21:20:34.008Z,11.16
2022-10-22T21:23:00.515Z,11.10
2022-10-22T21:25:27.054Z,11.11
2022-10-22T21:27:53.554Z,11.07
2022-10-22T21:30:20.063Z,11.03
2022-10-22T21:32:46.621Z,10.93
2022-10-22T21:35:13.163Z,10.91
2022-10-22T21:37:39.887Z,10.82
2022-10-22T21:40:07.344Z,10.78
2022-10-22T21:42:33.989Z,10.75
2022-10-22T21:45:00.561Z,10.83
2022-10-22T21:47:27.131Z,10.91
2022-10-22T21:49:53.865Z,10.84
2022-10-22T21:52:20.357Z,10.91
2022-10-22T21:54:46.884Z,10.82
2022-10-22T21:57:13.411Z,10.68
2022-10-22T21:59:40.009Z,10.61
2022-10-22T22:02:06.650Z,10.76
2022-10-22T22:04:33.312Z,10.81
2022-10-22T22:06:59.842Z,10.78
2022-10-22T22:09:26.388Z,10.76
2022-10-22T22:11:52.889Z,10.77
2022-10-22T22:14:19.487Z,10.76
2022-10-22T22:16:45.991Z,10.72
2022-10-22T22:19:12.558Z,10.66
2022-10-22T22:21:40.499Z,10.61
2022-10-22T22:24:09.019Z,10.65
2022-10-22T22:26:36.273Z,10.66
2022-10-22T22:29:03.028Z,10.70
2022-10-22T22:31:32.409Z,10.66
2022-10-22T22:34:06.555Z,10.49
2022-10-22T22:36:36.099Z,10.46
2022-10-22T22:39:04.724Z,10.51
2022-10-22T22:41:31.434Z,10.48
2022-10-22T22:43:57.966Z,10.54
2022-10-22T22:46:24.515Z,10.49
2022-10-22T22:48:51.098Z,10.44
2022-10-22T22:51:17.787Z,10.42
2022-10-22T22:53:44.656Z,10.45
2022-10-22T22:56:25.502Z,10.43
2022-10-22T22:58:52.132Z,10.46
2022-10-22T23:01:24.429Z,10.35
2022-10-22T23:03:57.932Z,10.33
2022-10-22T23:06:27.225Z,10.27
2022-10-22T23:08:54.579Z,10.34
2022-10-22T23:11:21.850Z,10.18
2022-10-22T23:13:51.688Z,10.17
2022-10-22T23:16:20.794Z,10.06
2022-10-22T23:18:48.965Z,10.07
2022-10-22T23:21:20.586Z,10.15
2022-10-22T23:23:52.632Z,10.02
2022-10-22T23:26:22.123Z,9.98
2022-10-22T23:28:49.234Z,9.79
2022-10-22T23:31:17.521Z,9.79
2022-10-22T23:33:44.647Z,9.70
2022-10-22T23:36:12.270Z,9.71
2022-10-22T23:38:40.094Z,9.65
2022-10-22T23:41:07.297Z,9.58
2022-10-22T23:43:37.885Z,9.49
2022-10-22T23:46:10.521Z,9.52
2022-10-22T23:48:39.185Z,9.50
2022-10-22T23:51:11.862Z,9.56
2022-10-22T23:53:39.175Z,9.59
2022-10-22T23:56:08.244Z,9.47
2022-10-22T23:58:35.454Z,9.39
